sensor_id;sensor_type;location;lat;lon;timestamp;P1;durP1;ratioP1;P2;durP2;ratioP2
38312;SDS011;24114;52.260;6.714;2023-06-05T08:50:55;8.10;;;5.40;;
38312;SDS011;24114;52.260;6.714;2023-06-05T08:53:24;7.93;;;5.78;;
38312;SDS011;24114;52.260;6.714;2023-06-05T08:55:56;8.63;;;5.73;;
38312;SDS011;24114;52.260;6.714;2023-06-05T08:58:24;7.70;;;5.80;;
38312;SDS011;24114;52.260;6.714;2023-06-05T09:00:52;6.30;;;5.22;;
38312;SDS011;24114;52.260;6.714;2023-06-05T09:03:20;6.88;;;5.50;;
38312;SDS011;24114;52.260;6.714;2023-06-05T09:05:48;8.55;;;5.78;;
38312;SDS011;24114;52.260;6.714;2023-06-05T09:08:17;6.15;;;5.30;;
38312;SDS011;24114;52.260;6.714;2023-06-05T09:10:47;7.28;;;5.35;;
38312;SDS011;24114;52.260;6.714;2023-06-05T09:13:14;6.90;;;5.07;;
38312;SDS011;24114;52.260;6.714;2023-06-05T09:15:42;6.57;;;4.53;;
38312;SDS011;24114;52.260;6.714;2023-06-05T09:18:17;7.87;;;5.43;;
38312;SDS011;24114;52.260;6.714;2023-06-05T09:20:45;6.40;;;4.90;;
38312;SDS011;24114;52.260;6.714;2023-06-05T09:23:24;7.47;;;5.32;;
38312;SDS011;24114;52.260;6.714;2023-06-05T09:25:55;8.60;;;5.60;;
38312;SDS011;24114;52.260;6.714;2023-06-05T09:28:25;7.68;;;5.15;;
38312;SDS011;24114;52.260;6.714;2023-06-05T09:30:53;7.00;;;5.40;;
38312;SDS011;24114;52.260;6.714;2023-06-05T09:33:23;5.55;;;4.93;;
38312;SDS011;24114;52.260;6.714;2023-06-05T09:38:37;6.70;;;4.90;;
38312;SDS011;24114;52.260;6.714;2023-06-05T09:41:06;5.60;;;4.68;;
38312;SDS011;24114;52.260;6.714;2023-06-05T09:43:35;4.95;;;4.07;;
38312;SDS011;24114;52.260;6.714;2023-06-05T09:46:05;5.70;;;4.07;;
38312;SDS011;24114;52.260;6.714;2023-06-05T09:48:36;4.45;;;3.88;;
38312;SDS011;24114;52.260;6.714;2023-06-05T09:51:08;6.38;;;4.20;;
38312;SDS011;24114;52.260;6.714;2023-06-05T09:53:42;5.38;;;4.28;;
38312;SDS011;24114;52.260;6.714;2023-06-05T09:56:11;6.10;;;4.22;;
38312;SDS011;24114;52.260;6.714;2023-06-05T09:58:41;5.15;;;4.55;;
38312;SDS011;24114;52.260;6.714;2023-06-05T10:01:11;5.72;;;4.43;;
38312;SDS011;24114;52.260;6.714;2023-06-05T10:03:41;5.15;;;4.60;;
38312;SDS011;24114;52.260;6.714;2023-06-05T10:06:10;6.50;;;5.00;;
38312;SDS011;24114;52.260;6.714;2023-06-05T10:08:43;7.10;;;5.20;;
38312;SDS011;24114;52.260;6.714;2023-06-05T10:11:11;7.37;;;4.90;;
38312;SDS011;24114;52.260;6.714;2023-06-05T10:13:39;6.03;;;4.30;;
38312;SDS011;24114;52.260;6.714;2023-06-05T10:16:06;6.15;;;4.57;;
38312;SDS011;24114;52.260;6.714;2023-06-05T10:18:51;6.30;;;4.85;;
38312;SDS011;24114;52.260;6.714;2023-06-05T10:21:19;7.85;;;5.15;;
38312;SDS011;24114;52.260;6.714;2023-06-05T10:23:49;7.93;;;5.10;;
38312;SDS011;24114;52.260;6.714;2023-06-05T10:26:21;5.78;;;4.50;;
38312;SDS011;24114;52.260;6.714;2023-06-05T10:28:58;5.30;;;4.43;;
38312;SDS011;24114;52.260;6.714;2023-06-05T10:31:34;6.77;;;4.40;;
38312;SDS011;24114;52.260;6.714;2023-06-05T10:34:12;8.55;;;4.53;;
38312;SDS011;24114;52.260;6.714;2023-06-05T10:36:53;7.22;;;3.95;;
38312;SDS011;24114;52.260;6.714;2023-06-05T10:39:49;5.05;;;4.18;;
38312;SDS011;24114;52.260;6.714;2023-06-05T10:42:24;5.88;;;3.92;;
38312;SDS011;24114;52.260;6.714;2023-06-05T10:44:52;5.18;;;3.72;;
38312;SDS011;24114;52.260;6.714;2023-06-05T10:50:19;5.13;;;3.80;;
38312;SDS011;24114;52.260;6.714;2023-06-05T10:52:48;4.38;;;3.92;;
38312;SDS011;24114;52.260;6.714;2023-06-05T10:55:18;5.30;;;3.35;;
38312;SDS011;24114;52.260;6.714;2023-06-05T10:58:06;4.82;;;3.90;;
38312;SDS011;24114;52.260;6.714;2023-06-05T11:06:25;9.57;;;4.60;;
38312;SDS011;24114;52.260;6.714;2023-06-05T11:09:05;5.43;;;3.58;;
38312;SDS011;24114;52.260;6.714;2023-06-05T11:15:38;4.60;;;3.20;;
38312;SDS011;24114;52.260;6.714;2023-06-05T11:18:32;4.07;;;3.35;;
38312;SDS011;24114;52.260;6.714;2023-06-05T11:21:00;4.75;;;3.45;;
38312;SDS011;24114;52.260;6.714;2023-06-05T11:23:29;5.35;;;3.95;;
38312;SDS011;24114;52.260;6.714;2023-06-05T11:25:57;5.78;;;3.55;;
38312;SDS011;24114;52.260;6.714;2023-06-05T11:28:49;6.78;;;3.60;;
38312;SDS011;24114;52.260;6.714;2023-06-05T11:31:27;9.50;;;3.80;;
38312;SDS011;24114;52.260;6.714;2023-06-05T11:33:57;4.03;;;2.40;;
38312;SDS011;24114;52.260;6.714;2023-06-05T11:36:25;5.63;;;3.22;;
38312;SDS011;24114;52.260;6.714;2023-06-05T11:38:53;4.80;;;3.20;;
38312;SDS011;24114;52.260;6.714;2023-06-05T11:41:22;3.63;;;2.78;;
38312;SDS011;24114;52.260;6.714;2023-06-05T11:43:52;4.85;;;3.20;;
38312;SDS011;24114;52.260;6.714;2023-06-05T11:46:20;5.20;;;2.63;;
38312;SDS011;24114;52.260;6.714;2023-06-05T11:49:03;4.50;;;3.37;;
38312;SDS011;24114;52.260;6.714;2023-06-05T11:51:34;4.07;;;3.17;;
38312;SDS011;24114;52.260;6.714;2023-06-05T11:54:03;3.57;;;2.90;;
38312;SDS011;24114;52.260;6.714;2023-06-05T11:56:33;3.08;;;2.30;;
38312;SDS011;24114;52.260;6.714;2023-06-05T11:59:09;4.63;;;2.70;;
38312;SDS011;24114;52.260;6.714;2023-06-05T12:01:37;4.93;;;2.60;;
38312;SDS011;24114;52.260;6.714;2023-06-05T12:04:11;4.13;;;2.90;;
38312;SDS011;24114;52.260;6.714;2023-06-05T12:06:44;3.95;;;2.85;;
38312;SDS011;24114;52.260;6.714;2023-06-05T12:09:14;4.15;;;3.10;;
38312;SDS011;24114;52.260;6.714;2023-06-05T12:11:42;5.47;;;2.53;;
38312;SDS011;24114;52.260;6.714;2023-06-05T12:14:12;3.03;;;2.30;;
38312;SDS011;24114;52.260;6.714;2023-06-05T12:16:40;4.10;;;1.93;;
38312;SDS011;24114;52.260;6.714;2023-06-05T12:19:11;3.35;;;2.15;;
38312;SDS011;24114;52.260;6.714;2023-06-05T12:21:42;3.97;;;2.90;;
38312;SDS011;24114;52.260;6.714;2023-06-05T12:24:10;6.50;;;2.80;;
38312;SDS011;24114;52.260;6.714;2023-06-05T12:26:51;3.22;;;2.10;;
38312;SDS011;24114;52.260;6.714;2023-06-05T12:29:22;4.85;;;2.50;;
38312;SDS011;24114;52.260;6.714;2023-06-05T12:31:51;3.83;;;2.30;;
38312;SDS011;24114;52.260;6.714;2023-06-05T12:37:24;3.92;;;2.03;;
38312;SDS011;24114;52.260;6.714;2023-06-05T12:39:54;3.45;;;1.77;;
38312;SDS011;24114;52.260;6.714;2023-06-05T12:42:22;3.07;;;2.00;;
38312;SDS011;24114;52.260;6.714;2023-06-05T12:44:51;3.88;;;1.88;;
38312;SDS011;24114;52.260;6.714;2023-06-05T12:47:18;2.60;;;1.63;;
38312;SDS011;24114;52.260;6.714;2023-06-05T12:49:46;2.72;;;1.80;;
38312;SDS011;24114;52.260;6.714;2023-06-05T12:52:14;3.63;;;1.85;;
38312;SDS011;24114;52.260;6.714;2023-06-05T12:54:42;2.88;;;1.58;;
38312;SDS011;24114;52.260;6.714;2023-06-05T12:57:10;3.28;;;1.80;;
38312;SDS011;24114;52.260;6.714;2023-06-05T12:59:39;4.60;;;1.60;;
38312;SDS011;24114;52.260;6.714;2023-06-05T13:02:08;2.95;;;1.38;;
38312;SDS011;24114;52.260;6.714;2023-06-05T13:04:36;3.58;;;1.40;;
38312;SDS011;24114;52.260;6.714;2023-06-05T13:07:04;2.80;;;1.70;;
38312;SDS011;24114;52.260;6.714;2023-06-05T13:09:31;2.80;;;1.50;;
38312;SDS011;24114;52.260;6.714;2023-06-05T13:12:00;3.10;;;1.48;;
38312;SDS011;24114;52.260;6.714;2023-06-05T13:14:30;2.75;;;1.52;;
38312;SDS011;24114;52.260;6.714;2023-06-05T13:16:58;2.30;;;1.60;;
38312;SDS011;24114;52.260;6.714;2023-06-05T13:19:27;2.70;;;1.42;;
38312;SDS011;24114;52.260;6.714;2023-06-05T13:21:55;2.40;;;1.40;;
38312;SDS011;24114;52.260;6.714;2023-06-05T13:24:23;3.55;;;1.20;;
38312;SDS011;24114;52.260;6.714;2023-06-05T13:26:51;2.40;;;1.50;;
38312;SDS011;24114;52.260;6.714;2023-06-05T13:29:19;2.83;;;1.30;;
38312;SDS011;24114;52.260;6.714;2023-06-05T13:31:47;2.25;;;1.00;;
38312;SDS011;24114;52.260;6.714;2023-06-05T13:34:14;2.13;;;1.10;;
38312;SDS011;24114;52.260;6.714;2023-06-05T13:36:45;2.80;;;1.45;;
38312;SDS011;24114;52.260;6.714;2023-06-05T13:39:15;3.05;;;1.48;;
38312;SDS011;24114;52.260;6.714;2023-06-05T13:41:43;2.55;;;1.00;;
38312;SDS011;24114;52.260;6.714;2023-06-05T13:44:11;2.47;;;1.00;;
38312;SDS011;24114;52.260;6.714;2023-06-05T13:46:39;2.35;;;1.08;;
38312;SDS011;24114;52.260;6.714;2023-06-05T13:49:09;1.50;;;0.63;;
38312;SDS011;24114;52.260;6.714;2023-06-05T13:51:37;1.70;;;0.60;;
38312;SDS011;24114;52.260;6.714;2023-06-05T13:54:06;3.03;;;1.02;;
38312;SDS011;24114;52.260;6.714;2023-06-05T13:56:34;3.40;;;0.77;;
38312;SDS011;24114;52.260;6.714;2023-06-05T13:59:02;1.75;;;0.90;;
38312;SDS011;24114;52.260;6.714;2023-06-05T14:01:29;2.43;;;0.90;;
38312;SDS011;24114;52.260;6.714;2023-06-05T14:03:57;3.22;;;0.93;;
38312;SDS011;24114;52.260;6.714;2023-06-05T14:06:25;3.75;;;1.00;;
38312;SDS011;24114;52.260;6.714;2023-06-05T14:08:53;3.00;;;0.88;;
38312;SDS011;24114;52.260;6.714;2023-06-05T14:11:22;2.40;;;1.00;;
38312;SDS011;24114;52.260;6.714;2023-06-05T14:13:52;2.78;;;0.95;;
38312;SDS011;24114;52.260;6.714;2023-06-05T14:16:20;2.65;;;0.90;;
38312;SDS011;24114;52.260;6.714;2023-06-05T14:18:48;1.88;;;0.80;;
38312;SDS011;24114;52.260;6.714;2023-06-05T14:21:16;2.47;;;0.98;;
38312;SDS011;24114;52.260;6.714;2023-06-05T14:23:44;4.32;;;1.10;;
38312;SDS011;24114;52.260;6.714;2023-06-05T14:26:12;3.03;;;0.90;;
38312;SDS011;24114;52.260;6.714;2023-06-05T14:28:41;1.30;;;0.50;;
38312;SDS011;24114;52.260;6.714;2023-06-05T14:31:09;2.50;;;0.40;;
38312;SDS011;24114;52.260;6.714;2023-06-05T14:33:36;2.33;;;0.68;;
38312;SDS011;24114;52.260;6.714;2023-06-05T14:36:04;1.67;;;0.80;;
38312;SDS011;24114;52.260;6.714;2023-06-05T14:38:32;2.20;;;0.52;;
38312;SDS011;24114;52.260;6.714;2023-06-05T14:41:00;2.60;;;0.85;;
38312;SDS011;24114;52.260;6.714;2023-06-05T14:43:28;5.20;;;0.80;;
38312;SDS011;24114;52.260;6.714;2023-06-05T14:45:57;2.10;;;0.60;;
38312;SDS011;24114;52.260;6.714;2023-06-05T14:48:26;2.72;;;0.90;;
38312;SDS011;24114;52.260;6.714;2023-06-05T14:50:54;3.35;;;1.33;;
38312;SDS011;24114;52.260;6.714;2023-06-05T14:53:22;3.47;;;1.00;;
38312;SDS011;24114;52.260;6.714;2023-06-05T14:55:51;1.97;;;0.80;;
38312;SDS011;24114;52.260;6.714;2023-06-05T14:58:18;2.63;;;0.60;;
38312;SDS011;24114;52.260;6.714;2023-06-05T15:00:46;3.00;;;0.80;;
38312;SDS011;24114;52.260;6.714;2023-06-05T15:03:21;1.50;;;0.80;;
38312;SDS011;24114;52.260;6.714;2023-06-05T15:05:49;8.95;;;0.85;;
38312;SDS011;24114;52.260;6.714;2023-06-05T15:08:18;1.60;;;0.90;;
38312;SDS011;24114;52.260;6.714;2023-06-05T15:10:47;2.38;;;0.80;;
38312;SDS011;24114;52.260;6.714;2023-06-05T15:13:16;2.20;;;0.73;;
38312;SDS011;24114;52.260;6.714;2023-06-05T15:15:46;4.80;;;1.00;;
38312;SDS011;24114;52.260;6.714;2023-06-05T15:18:14;4.05;;;0.93;;
38312;SDS011;24114;52.260;6.714;2023-06-05T15:20:43;2.20;;;1.08;;
38312;SDS011;24114;52.260;6.714;2023-06-05T15:23:11;2.60;;;0.82;;
38312;SDS011;24114;52.260;6.714;2023-06-05T15:25:42;9.80;;;2.53;;
38312;SDS011;24114;52.260;6.714;2023-06-05T15:28:10;6.88;;;1.48;;
38312;SDS011;24114;52.260;6.714;2023-06-05T15:30:38;1.90;;;0.70;;
38312;SDS011;24114;52.260;6.714;2023-06-05T15:33:06;8.85;;;1.80;;
38312;SDS011;24114;52.260;6.714;2023-06-05T15:35:34;5.27;;;2.00;;
38312;SDS011;24114;52.260;6.714;2023-06-05T15:38:03;2.45;;;1.05;;
38312;SDS011;24114;52.260;6.714;2023-06-05T15:40:31;1.40;;;0.60;;
38312;SDS011;24114;52.260;6.714;2023-06-05T15:43:05;2.38;;;0.70;;
38312;SDS011;24114;52.260;6.714;2023-06-05T20:01:57;6.38;;;3.83;;
38312;SDS011;24114;52.260;6.714;2023-06-05T20:04:25;5.65;;;4.00;;
38312;SDS011;24114;52.260;6.714;2023-06-05T20:06:53;5.65;;;4.20;;
38312;SDS011;24114;52.260;6.714;2023-06-05T20:09:21;7.25;;;4.10;;
38312;SDS011;24114;52.260;6.714;2023-06-05T20:11:49;6.97;;;4.23;;
38312;SDS011;24114;52.260;6.714;2023-06-05T20:14:16;6.68;;;3.85;;
38312;SDS011;24114;52.260;6.714;2023-06-05T20:16:45;6.22;;;4.10;;
38312;SDS011;24114;52.260;6.714;2023-06-05T20:19:15;5.97;;;3.85;;
38312;SDS011;24114;52.260;6.714;2023-06-05T20:21:43;7.68;;;4.20;;
38312;SDS011;24114;52.260;6.714;2023-06-05T20:24:11;7.80;;;4.05;;
38312;SDS011;24114;52.260;6.714;2023-06-05T20:26:38;7.43;;;3.85;;
38312;SDS011;24114;52.260;6.714;2023-06-05T20:29:06;4.70;;;4.03;;
38312;SDS011;24114;52.260;6.714;2023-06-05T20:31:35;6.22;;;4.30;;
38312;SDS011;24114;52.260;6.714;2023-06-05T20:34:03;5.95;;;4.00;;
38312;SDS011;24114;52.260;6.714;2023-06-05T20:36:32;7.00;;;4.00;;
38312;SDS011;24114;52.260;6.714;2023-06-05T20:39:00;6.43;;;4.10;;
38312;SDS011;24114;52.260;6.714;2023-06-05T20:41:28;5.82;;;3.95;;
38312;SDS011;24114;52.260;6.714;2023-06-05T20:43:56;6.45;;;4.25;;
38312;SDS011;24114;52.260;6.714;2023-06-05T20:46:26;5.22;;;3.55;;
38312;SDS011;24114;52.260;6.714;2023-06-05T20:48:54;5.53;;;4.07;;
38312;SDS011;24114;52.260;6.714;2023-06-05T20:51:27;5.43;;;4.30;;
38312;SDS011;24114;52.260;6.714;2023-06-05T20:53:57;5.93;;;4.18;;
38312;SDS011;24114;52.260;6.714;2023-06-05T20:56:25;7.55;;;4.88;;
38312;SDS011;24114;52.260;6.714;2023-06-05T20:58:53;7.32;;;4.25;;
38312;SDS011;24114;52.260;6.714;2023-06-05T21:01:22;7.22;;;4.25;;
38312;SDS011;24114;52.260;6.714;2023-06-05T21:03:51;5.43;;;3.97;;
38312;SDS011;24114;52.260;6.714;2023-06-05T21:06:19;6.03;;;4.20;;
38312;SDS011;24114;52.260;6.714;2023-06-05T21:08:50;6.17;;;4.50;;
38312;SDS011;24114;52.260;6.714;2023-06-05T21:11:19;5.38;;;4.10;;
38312;SDS011;24114;52.260;6.714;2023-06-05T21:13:47;7.00;;;4.38;;
38312;SDS011;24114;52.260;6.714;2023-06-05T21:16:14;5.47;;;4.13;;
38312;SDS011;24114;52.260;6.714;2023-06-05T21:18:42;6.90;;;4.45;;
38312;SDS011;24114;52.260;6.714;2023-06-05T21:21:10;7.85;;;4.30;;
38312;SDS011;24114;52.260;6.714;2023-06-05T21:23:38;6.72;;;4.45;;
38312;SDS011;24114;52.260;6.714;2023-06-05T21:26:05;6.63;;;4.15;;
38312;SDS011;24114;52.260;6.714;2023-06-05T21:28:35;5.55;;;3.88;;
38312;SDS011;24114;52.260;6.714;2023-06-05T21:31:03;5.40;;;3.85;;
38312;SDS011;24114;52.260;6.714;2023-06-05T21:33:32;6.65;;;4.20;;
38312;SDS011;24114;52.260;6.714;2023-06-05T21:36:00;5.35;;;4.15;;
38312;SDS011;24114;52.260;6.714;2023-06-05T21:38:28;6.35;;;4.05;;
38312;SDS011;24114;52.260;6.714;2023-06-05T21:40:56;6.40;;;4.05;;
38312;SDS011;24114;52.260;6.714;2023-06-05T21:43:24;9.93;;;4.80;;
38312;SDS011;24114;52.260;6.714;2023-06-05T21:45:53;6.55;;;4.63;;
38312;SDS011;24114;52.260;6.714;2023-06-05T21:48:21;6.72;;;4.10;;
38312;SDS011;24114;52.260;6.714;2023-06-05T21:50:51;6.90;;;4.50;;
38312;SDS011;24114;52.260;6.714;2023-06-05T21:53:19;6.07;;;4.28;;
38312;SDS011;24114;52.260;6.714;2023-06-05T21:55:47;10.65;;;4.63;;
38312;SDS011;24114;52.260;6.714;2023-06-05T21:58:16;5.90;;;4.57;;
38312;SDS011;24114;52.260;6.714;2023-06-05T22:00:44;6.55;;;4.55;;
38312;SDS011;24114;52.260;6.714;2023-06-05T22:03:13;6.32;;;4.70;;
38312;SDS011;24114;52.260;6.714;2023-06-05T22:05:41;6.00;;;4.25;;
38312;SDS011;24114;52.260;6.714;2023-06-05T22:08:09;5.15;;;4.00;;
38312;SDS011;24114;52.260;6.714;2023-06-05T22:10:39;8.23;;;4.50;;
38312;SDS011;24114;52.260;6.714;2023-06-05T22:13:07;7.65;;;4.30;;
38312;SDS011;24114;52.260;6.714;2023-06-05T22:15:38;7.70;;;4.50;;
38312;SDS011;24114;52.260;6.714;2023-06-05T22:18:07;7.00;;;4.25;;
38312;SDS011;24114;52.260;6.714;2023-06-05T22:20:40;4.70;;;4.10;;
38312;SDS011;24114;52.260;6.714;2023-06-05T22:23:09;5.43;;;4.18;;
38312;SDS011;24114;52.260;6.714;2023-06-05T22:25:37;5.38;;;4.43;;
38312;SDS011;24114;52.260;6.714;2023-06-05T22:28:17;6.55;;;4.70;;
38312;SDS011;24114;52.260;6.714;2023-06-05T22:30:45;5.90;;;4.32;;
38312;SDS011;24114;52.260;6.714;2023-06-05T22:33:13;5.35;;;4.13;;
38312;SDS011;24114;52.260;6.714;2023-06-05T22:35:45;6.72;;;4.60;;
38312;SDS011;24114;52.260;6.714;2023-06-05T22:38:13;5.72;;;4.30;;
38312;SDS011;24114;52.260;6.714;2023-06-05T22:40:40;5.47;;;4.23;;
38312;SDS011;24114;52.260;6.714;2023-06-05T22:43:08;4.72;;;3.90;;
38312;SDS011;24114;52.260;6.714;2023-06-05T22:45:36;6.53;;;4.53;;
38312;SDS011;24114;52.260;6.714;2023-06-05T22:48:04;6.20;;;5.03;;
38312;SDS011;24114;52.260;6.714;2023-06-05T22:50:33;7.57;;;4.60;;
38312;SDS011;24114;52.260;6.714;2023-06-05T22:53:04;5.03;;;4.07;;
38312;SDS011;24114;52.260;6.714;2023-06-05T22:55:32;6.28;;;4.97;;
38312;SDS011;24114;52.260;6.714;2023-06-05T22:58:01;5.25;;;4.43;;
38312;SDS011;24114;52.260;6.714;2023-06-05T23:00:29;9.23;;;4.70;;
38312;SDS011;24114;52.260;6.714;2023-06-05T23:02:57;6.18;;;4.35;;
38312;SDS011;24114;52.260;6.714;2023-06-05T23:05:25;6.90;;;4.75;;
38312;SDS011;24114;52.260;6.714;2023-06-05T23:07:53;6.88;;;4.50;;
38312;SDS011;24114;52.260;6.714;2023-06-05T23:10:22;5.72;;;4.28;;
38312;SDS011;24114;52.260;6.714;2023-06-05T23:12:50;6.50;;;4.57;;
38312;SDS011;24114;52.260;6.714;2023-06-05T23:15:18;7.10;;;4.78;;
38312;SDS011;24114;52.260;6.714;2023-06-05T23:17:46;6.63;;;4.43;;
38312;SDS011;24114;52.260;6.714;2023-06-05T23:20:14;5.90;;;4.25;;
38312;SDS011;24114;52.260;6.714;2023-06-05T23:22:43;5.97;;;4.57;;
38312;SDS011;24114;52.260;6.714;2023-06-05T23:25:11;8.15;;;4.97;;
38312;SDS011;24114;52.260;6.714;2023-06-05T23:27:40;7.10;;;4.50;;
38312;SDS011;24114;52.260;6.714;2023-06-05T23:30:08;8.02;;;4.32;;
38312;SDS011;24114;52.260;6.714;2023-06-05T23:32:37;7.95;;;4.28;;
38312;SDS011;24114;52.260;6.714;2023-06-05T23:35:05;5.22;;;4.03;;
38312;SDS011;24114;52.260;6.714;2023-06-05T23:37:33;6.57;;;4.40;;
38312;SDS011;24114;52.260;6.714;2023-06-05T23:40:00;5.85;;;4.93;;
38312;SDS011;24114;52.260;6.714;2023-06-05T23:42:29;7.07;;;4.63;;
38312;SDS011;24114;52.260;6.714;2023-06-05T23:44:58;5.28;;;4.50;;
38312;SDS011;24114;52.260;6.714;2023-06-05T23:47:26;6.32;;;4.53;;
38312;SDS011;24114;52.260;6.714;2023-06-05T23:49:55;6.10;;;4.78;;
38312;SDS011;24114;52.260;6.714;2023-06-05T23:52:23;6.38;;;4.90;;
38312;SDS011;24114;52.260;6.714;2023-06-05T23:54:52;6.93;;;5.13;;
38312;SDS011;24114;52.260;6.714;2023-06-05T23:57:22;6.77;;;4.63;;
38312;SDS011;24114;52.260;6.714;2023-06-05T23:59:50;7.70;;;4.78;;
